sensor_id;sensor_type;location;lat;lon;timestamp;P1;durP1;ratioP1;P2;durP2;ratioP2
69005;SDS011;56061;51.748;19.620;2022-08-21T00:00:44;13.00;;;6.80;;
69005;SDS011;56061;51.748;19.620;2022-08-21T00:03:12;12.00;;;6.70;;
69005;SDS011;56061;51.748;19.620;2022-08-21T00:05:44;13.80;;;7.00;;
69005;SDS011;56061;51.748;19.620;2022-08-21T00:08:18;14.20;;;6.90;;
69005;SDS011;56061;51.748;19.620;2022-08-21T00:10:47;13.40;;;6.90;;
69005;SDS011;56061;51.748;19.620;2022-08-21T00:13:16;12.10;;;6.60;;
69005;SDS011;56061;51.748;19.620;2022-08-21T00:15:44;12.50;;;6.30;;
69005;SDS011;56061;51.748;19.620;2022-08-21T00:18:11;12.50;;;6.70;;
69005;SDS011;56061;51.748;19.620;2022-08-21T00:20:39;13.70;;;6.50;;
69005;SDS011;56061;51.748;19.620;2022-08-21T00:23:07;11.00;;;5.70;;
69005;SDS011;56061;51.748;19.620;2022-08-21T00:25:34;13.90;;;6.10;;
69005;SDS011;56061;51.748;19.620;2022-08-21T00:28:01;10.80;;;5.30;;
69005;SDS011;56061;51.748;19.620;2022-08-21T00:30:29;11.50;;;5.60;;
69005;SDS011;56061;51.748;19.620;2022-08-21T00:32:56;10.50;;;5.50;;
69005;SDS011;56061;51.748;19.620;2022-08-21T00:35:27;9.30;;;5.20;;
69005;SDS011;56061;51.748;19.620;2022-08-21T00:37:56;11.00;;;5.30;;
69005;SDS011;56061;51.748;19.620;2022-08-21T00:40:28;12.30;;;5.00;;
69005;SDS011;56061;51.748;19.620;2022-08-21T00:43:02;10.70;;;5.00;;
69005;SDS011;56061;51.748;19.620;2022-08-21T00:45:31;11.20;;;5.20;;
69005;SDS011;56061;51.748;19.620;2022-08-21T00:47:58;10.60;;;4.70;;
69005;SDS011;56061;51.748;19.620;2022-08-21T00:50:29;11.10;;;4.70;;
69005;SDS011;56061;51.748;19.620;2022-08-21T00:52:59;9.70;;;4.70;;
69005;SDS011;56061;51.748;19.620;2022-08-21T00:55:29;10.20;;;4.60;;
69005;SDS011;56061;51.748;19.620;2022-08-21T00:57:59;11.50;;;5.20;;
69005;SDS011;56061;51.748;19.620;2022-08-21T01:00:31;10.60;;;4.70;;
69005;SDS011;56061;51.748;19.620;2022-08-21T01:03:02;10.30;;;5.50;;
69005;SDS011;56061;51.748;19.620;2022-08-21T01:05:34;12.10;;;5.80;;
69005;SDS011;56061;51.748;19.620;2022-08-21T01:08:02;11.00;;;5.90;;
69005;SDS011;56061;51.748;19.620;2022-08-21T01:10:30;12.40;;;5.40;;
69005;SDS011;56061;51.748;19.620;2022-08-21T01:12:57;13.10;;;5.50;;
69005;SDS011;56061;51.748;19.620;2022-08-21T01:15:28;11.50;;;5.50;;
69005;SDS011;56061;51.748;19.620;2022-08-21T01:17:58;10.10;;;5.30;;
69005;SDS011;56061;51.748;19.620;2022-08-21T01:20:26;11.30;;;5.20;;
69005;SDS011;56061;51.748;19.620;2022-08-21T01:22:58;10.40;;;5.00;;
69005;SDS011;56061;51.748;19.620;2022-08-21T01:25:26;12.30;;;5.10;;
69005;SDS011;56061;51.748;19.620;2022-08-21T01:27:52;11.60;;;5.50;;
69005;SDS011;56061;51.748;19.620;2022-08-21T01:30:23;12.50;;;5.40;;
69005;SDS011;56061;51.748;19.620;2022-08-21T01:32:52;11.40;;;5.00;;
69005;SDS011;56061;51.748;19.620;2022-08-21T01:35:20;10.90;;;5.20;;
69005;SDS011;56061;51.748;19.620;2022-08-21T01:37:48;9.90;;;5.20;;
69005;SDS011;56061;51.748;19.620;2022-08-21T01:40:15;12.20;;;5.70;;
69005;SDS011;56061;51.748;19.620;2022-08-21T01:42:44;8.80;;;5.00;;
69005;SDS011;56061;51.748;19.620;2022-08-21T01:45:12;11.50;;;5.60;;
69005;SDS011;56061;51.748;19.620;2022-08-21T01:47:40;11.70;;;5.30;;
69005;SDS011;56061;51.748;19.620;2022-08-21T01:50:11;13.00;;;6.00;;
69005;SDS011;56061;51.748;19.620;2022-08-21T01:52:40;9.70;;;5.20;;
69005;SDS011;56061;51.748;19.620;2022-08-21T01:55:12;11.10;;;5.70;;
69005;SDS011;56061;51.748;19.620;2022-08-21T01:57:41;13.40;;;5.70;;
69005;SDS011;56061;51.748;19.620;2022-08-21T02:00:11;13.10;;;5.50;;
69005;SDS011;56061;51.748;19.620;2022-08-21T02:02:40;11.80;;;6.20;;
69005;SDS011;56061;51.748;19.620;2022-08-21T02:05:08;8.60;;;5.60;;
69005;SDS011;56061;51.748;19.620;2022-08-21T02:07:42;11.20;;;5.40;;
69005;SDS011;56061;51.748;19.620;2022-08-21T02:12:38;10.50;;;5.90;;
69005;SDS011;56061;51.748;19.620;2022-08-21T02:15:06;11.80;;;6.20;;
69005;SDS011;56061;51.748;19.620;2022-08-21T02:17:42;11.40;;;6.00;;
69005;SDS011;56061;51.748;19.620;2022-08-21T02:20:27;11.70;;;6.20;;
69005;SDS011;56061;51.748;19.620;2022-08-21T02:22:56;11.60;;;5.80;;
69005;SDS011;56061;51.748;19.620;2022-08-21T02:25:25;13.30;;;6.40;;
69005;SDS011;56061;51.748;19.620;2022-08-21T02:27:54;13.00;;;6.40;;
69005;SDS011;56061;51.748;19.620;2022-08-21T02:30:26;11.70;;;6.20;;
69005;SDS011;56061;51.748;19.620;2022-08-21T02:32:55;14.30;;;6.70;;
69005;SDS011;56061;51.748;19.620;2022-08-21T02:35:23;12.50;;;6.90;;
69005;SDS011;56061;51.748;19.620;2022-08-21T02:37:54;11.10;;;6.90;;
69005;SDS011;56061;51.748;19.620;2022-08-21T02:40:26;12.40;;;7.30;;
69005;SDS011;56061;51.748;19.620;2022-08-21T02:43:00;12.40;;;6.70;;
69005;SDS011;56061;51.748;19.620;2022-08-21T02:45:29;14.50;;;7.10;;
69005;SDS011;56061;51.748;19.620;2022-08-21T02:48:02;13.30;;;6.80;;
69005;SDS011;56061;51.748;19.620;2022-08-21T02:50:37;10.30;;;6.70;;
69005;SDS011;56061;51.748;19.620;2022-08-21T02:53:07;12.90;;;6.70;;
69005;SDS011;56061;51.748;19.620;2022-08-21T02:55:36;12.20;;;7.30;;
69005;SDS011;56061;51.748;19.620;2022-08-21T02:58:05;11.20;;;6.80;;
69005;SDS011;56061;51.748;19.620;2022-08-21T03:00:36;14.80;;;6.80;;
69005;SDS011;56061;51.748;19.620;2022-08-21T03:03:04;14.00;;;7.00;;
69005;SDS011;56061;51.748;19.620;2022-08-21T03:05:33;13.60;;;7.40;;
69005;SDS011;56061;51.748;19.620;2022-08-21T03:08:03;14.90;;;7.30;;
69005;SDS011;56061;51.748;19.620;2022-08-21T03:10:41;14.10;;;7.30;;
69005;SDS011;56061;51.748;19.620;2022-08-21T03:13:10;15.20;;;7.40;;
69005;SDS011;56061;51.748;19.620;2022-08-21T03:15:38;13.70;;;7.40;;
69005;SDS011;56061;51.748;19.620;2022-08-21T03:18:06;14.70;;;7.40;;
69005;SDS011;56061;51.748;19.620;2022-08-21T03:20:34;16.10;;;8.10;;
69005;SDS011;56061;51.748;19.620;2022-08-21T03:23:04;13.70;;;7.60;;
69005;SDS011;56061;51.748;19.620;2022-08-21T03:25:42;12.60;;;7.80;;
69005;SDS011;56061;51.748;19.620;2022-08-21T03:28:12;13.70;;;7.70;;
69005;SDS011;56061;51.748;19.620;2022-08-21T03:30:43;13.80;;;8.20;;
69005;SDS011;56061;51.748;19.620;2022-08-21T03:33:12;13.40;;;7.90;;
69005;SDS011;56061;51.748;19.620;2022-08-21T03:35:42;14.60;;;8.30;;
69005;SDS011;56061;51.748;19.620;2022-08-21T03:38:11;14.30;;;7.90;;
69005;SDS011;56061;51.748;19.620;2022-08-21T03:40:40;12.50;;;7.70;;
69005;SDS011;56061;51.748;19.620;2022-08-21T03:43:08;13.60;;;7.60;;
69005;SDS011;56061;51.748;19.620;2022-08-21T03:45:35;15.00;;;7.60;;
69005;SDS011;56061;51.748;19.620;2022-08-21T03:48:04;12.50;;;7.20;;
69005;SDS011;56061;51.748;19.620;2022-08-21T03:50:36;11.70;;;7.00;;
69005;SDS011;56061;51.748;19.620;2022-08-21T03:53:07;11.40;;;7.50;;
69005;SDS011;56061;51.748;19.620;2022-08-21T03:55:43;13.70;;;7.00;;
69005;SDS011;56061;51.748;19.620;2022-08-21T03:58:10;13.20;;;7.30;;
69005;SDS011;56061;51.748;19.620;2022-08-21T04:00:46;12.30;;;6.70;;
69005;SDS011;56061;51.748;19.620;2022-08-21T04:03:15;10.70;;;6.50;;
69005;SDS011;56061;51.748;19.620;2022-08-21T04:05:43;10.00;;;6.60;;
69005;SDS011;56061;51.748;19.620;2022-08-21T04:08:13;11.00;;;6.50;;
69005;SDS011;56061;51.748;19.620;2022-08-21T04:10:41;10.50;;;6.50;;
69005;SDS011;56061;51.748;19.620;2022-08-21T04:13:10;12.50;;;6.40;;
69005;SDS011;56061;51.748;19.620;2022-08-21T04:15:36;11.30;;;6.30;;
69005;SDS011;56061;51.748;19.620;2022-08-21T04:18:04;9.80;;;6.30;;
69005;SDS011;56061;51.748;19.620;2022-08-21T04:20:32;9.20;;;5.60;;
69005;SDS011;56061;51.748;19.620;2022-08-21T04:23:00;9.70;;;6.10;;
69005;SDS011;56061;51.748;19.620;2022-08-21T04:25:27;10.80;;;6.00;;
69005;SDS011;56061;51.748;19.620;2022-08-21T04:27:55;11.20;;;5.80;;
69005;SDS011;56061;51.748;19.620;2022-08-21T04:30:22;9.60;;;5.90;;
69005;SDS011;56061;51.748;19.620;2022-08-21T04:32:55;9.50;;;5.80;;
69005;SDS011;56061;51.748;19.620;2022-08-21T04:35:26;9.90;;;5.50;;
69005;SDS011;56061;51.748;19.620;2022-08-21T04:37:54;8.80;;;5.70;;
69005;SDS011;56061;51.748;19.620;2022-08-21T04:40:22;10.10;;;5.80;;
69005;SDS011;56061;51.748;19.620;2022-08-21T04:42:54;10.60;;;5.30;;
69005;SDS011;56061;51.748;19.620;2022-08-21T04:45:32;11.30;;;5.60;;
69005;SDS011;56061;51.748;19.620;2022-08-21T04:48:03;9.90;;;5.60;;
69005;SDS011;56061;51.748;19.620;2022-08-21T04:50:56;10.20;;;5.70;;
69005;SDS011;56061;51.748;19.620;2022-08-21T04:53:33;8.70;;;5.00;;
69005;SDS011;56061;51.748;19.620;2022-08-21T04:56:08;8.80;;;5.30;;
69005;SDS011;56061;51.748;19.620;2022-08-21T04:58:39;8.50;;;5.40;;
69005;SDS011;56061;51.748;19.620;2022-08-21T05:01:15;10.70;;;5.70;;
69005;SDS011;56061;51.748;19.620;2022-08-21T05:03:48;9.80;;;5.50;;
69005;SDS011;56061;51.748;19.620;2022-08-21T05:06:17;9.20;;;5.50;;
69005;SDS011;56061;51.748;19.620;2022-08-21T05:08:47;9.20;;;5.40;;
69005;SDS011;56061;51.748;19.620;2022-08-21T05:11:27;9.40;;;5.20;;
69005;SDS011;56061;51.748;19.620;2022-08-21T05:13:56;9.20;;;5.60;;
69005;SDS011;56061;51.748;19.620;2022-08-21T05:16:23;8.80;;;5.10;;
69005;SDS011;56061;51.748;19.620;2022-08-21T05:19:02;8.70;;;5.20;;
69005;SDS011;56061;51.748;19.620;2022-08-21T05:21:30;10.00;;;5.10;;
69005;SDS011;56061;51.748;19.620;2022-08-21T05:23:59;9.20;;;4.80;;
69005;SDS011;56061;51.748;19.620;2022-08-21T05:26:25;10.80;;;5.60;;
69005;SDS011;56061;51.748;19.620;2022-08-21T05:28:52;8.20;;;4.90;;
69005;SDS011;56061;51.748;19.620;2022-08-21T05:31:18;8.00;;;4.90;;
69005;SDS011;56061;51.748;19.620;2022-08-21T05:33:45;8.40;;;4.90;;
69005;SDS011;56061;51.748;19.620;2022-08-21T05:36:12;8.60;;;5.20;;
69005;SDS011;56061;51.748;19.620;2022-08-21T05:38:39;8.90;;;4.60;;
69005;SDS011;56061;51.748;19.620;2022-08-21T05:41:05;8.80;;;4.90;;
69005;SDS011;56061;51.748;19.620;2022-08-21T05:43:33;7.60;;;5.00;;
69005;SDS011;56061;51.748;19.620;2022-08-21T05:46:03;8.40;;;4.90;;
69005;SDS011;56061;51.748;19.620;2022-08-21T05:48:34;7.70;;;4.70;;
69005;SDS011;56061;51.748;19.620;2022-08-21T05:51:10;10.40;;;5.10;;
69005;SDS011;56061;51.748;19.620;2022-08-21T05:53:40;6.80;;;4.20;;
69005;SDS011;56061;51.748;19.620;2022-08-21T05:56:09;8.20;;;4.60;;
69005;SDS011;56061;51.748;19.620;2022-08-21T05:58:36;9.30;;;4.40;;
69005;SDS011;56061;51.748;19.620;2022-08-21T06:01:03;8.10;;;4.20;;
69005;SDS011;56061;51.748;19.620;2022-08-21T06:03:34;7.40;;;4.80;;
69005;SDS011;56061;51.748;19.620;2022-08-21T06:06:03;8.00;;;5.10;;
69005;SDS011;56061;51.748;19.620;2022-08-21T06:08:30;7.70;;;4.50;;
69005;SDS011;56061;51.748;19.620;2022-08-21T06:10:59;9.40;;;4.90;;
69005;SDS011;56061;51.748;19.620;2022-08-21T06:13:27;6.90;;;4.70;;
69005;SDS011;56061;51.748;19.620;2022-08-21T06:16:19;7.60;;;4.50;;
69005;SDS011;56061;51.748;19.620;2022-08-21T06:18:46;10.80;;;4.80;;
69005;SDS011;56061;51.748;19.620;2022-08-21T06:21:13;7.60;;;4.30;;
69005;SDS011;56061;51.748;19.620;2022-08-21T06:23:41;7.70;;;4.80;;
69005;SDS011;56061;51.748;19.620;2022-08-21T06:26:10;7.50;;;5.10;;
69005;SDS011;56061;51.748;19.620;2022-08-21T06:28:39;7.20;;;4.40;;
69005;SDS011;56061;51.748;19.620;2022-08-21T06:31:20;8.20;;;4.30;;
69005;SDS011;56061;51.748;19.620;2022-08-21T06:33:49;6.30;;;4.50;;
69005;SDS011;56061;51.748;19.620;2022-08-21T06:36:16;8.30;;;4.70;;
69005;SDS011;56061;51.748;19.620;2022-08-21T06:38:43;9.50;;;4.70;;
69005;SDS011;56061;51.748;19.620;2022-08-21T06:41:18;8.10;;;4.30;;
69005;SDS011;56061;51.748;19.620;2022-08-21T06:43:52;7.20;;;4.60;;
69005;SDS011;56061;51.748;19.620;2022-08-21T06:46:19;8.40;;;4.60;;
69005;SDS011;56061;51.748;19.620;2022-08-21T06:48:45;7.10;;;4.20;;
69005;SDS011;56061;51.748;19.620;2022-08-21T06:51:12;6.60;;;4.20;;
69005;SDS011;56061;51.748;19.620;2022-08-21T06:53:42;7.70;;;4.30;;
69005;SDS011;56061;51.748;19.620;2022-08-21T06:56:13;5.80;;;3.70;;
69005;SDS011;56061;51.748;19.620;2022-08-21T06:58:39;7.30;;;4.30;;
69005;SDS011;56061;51.748;19.620;2022-08-21T07:01:06;8.10;;;4.30;;
69005;SDS011;56061;51.748;19.620;2022-08-21T07:03:39;7.20;;;4.20;;
69005;SDS011;56061;51.748;19.620;2022-08-21T07:06:09;8.00;;;4.50;;
69005;SDS011;56061;51.748;19.620;2022-08-21T07:08:37;7.80;;;4.70;;
69005;SDS011;56061;51.748;19.620;2022-08-21T07:11:17;8.70;;;4.60;;
69005;SDS011;56061;51.748;19.620;2022-08-21T07:13:46;9.10;;;4.30;;
69005;SDS011;56061;51.748;19.620;2022-08-21T07:16:13;8.60;;;4.40;;
69005;SDS011;56061;51.748;19.620;2022-08-21T07:18:40;7.20;;;4.30;;
69005;SDS011;56061;51.748;19.620;2022-08-21T07:21:07;7.30;;;4.20;;
69005;SDS011;56061;51.748;19.620;2022-08-21T07:23:42;6.80;;;4.30;;
69005;SDS011;56061;51.748;19.620;2022-08-21T07:26:12;6.80;;;4.20;;
69005;SDS011;56061;51.748;19.620;2022-08-21T07:28:39;7.30;;;3.80;;
69005;SDS011;56061;51.748;19.620;2022-08-21T07:31:06;6.40;;;3.90;;
69005;SDS011;56061;51.748;19.620;2022-08-21T07:33:35;8.30;;;4.10;;
69005;SDS011;56061;51.748;19.620;2022-08-21T07:36:02;7.20;;;3.80;;
69005;SDS011;56061;51.748;19.620;2022-08-21T07:38:29;7.40;;;3.90;;
69005;SDS011;56061;51.748;19.620;2022-08-21T07:40:57;7.10;;;4.10;;
69005;SDS011;56061;51.748;19.620;2022-08-21T07:43:28;6.90;;;4.10;;
69005;SDS011;56061;51.748;19.620;2022-08-21T07:45:55;7.50;;;4.30;;
69005;SDS011;56061;51.748;19.620;2022-08-21T07:48:22;7.20;;;3.80;;
69005;SDS011;56061;51.748;19.620;2022-08-21T07:50:49;7.10;;;4.00;;
69005;SDS011;56061;51.748;19.620;2022-08-21T07:53:16;7.20;;;4.00;;
69005;SDS011;56061;51.748;19.620;2022-08-21T07:55:43;6.90;;;4.10;;
69005;SDS011;56061;51.748;19.620;2022-08-21T07:58:09;6.60;;;4.10;;
69005;SDS011;56061;51.748;19.620;2022-08-21T08:00:36;7.00;;;4.30;;
69005;SDS011;56061;51.748;19.620;2022-08-21T08:03:03;6.40;;;4.20;;
69005;SDS011;56061;51.748;19.620;2022-08-21T08:05:31;6.90;;;3.90;;
69005;SDS011;56061;51.748;19.620;2022-08-21T08:07:58;7.10;;;4.00;;
69005;SDS011;56061;51.748;19.620;2022-08-21T08:10:25;6.40;;;4.00;;
69005;SDS011;56061;51.748;19.620;2022-08-21T08:12:52;6.30;;;3.70;;
69005;SDS011;56061;51.748;19.620;2022-08-21T08:15:24;7.40;;;4.00;;
69005;SDS011;56061;51.748;19.620;2022-08-21T08:17:52;6.80;;;4.20;;
69005;SDS011;56061;51.748;19.620;2022-08-21T08:20:22;6.60;;;4.00;;
69005;SDS011;56061;51.748;19.620;2022-08-21T08:22:50;6.70;;;3.80;;
69005;SDS011;56061;51.748;19.620;2022-08-21T08:25:18;6.90;;;3.80;;
69005;SDS011;56061;51.748;19.620;2022-08-21T08:27:46;7.30;;;4.00;;
69005;SDS011;56061;51.748;19.620;2022-08-21T08:30:15;8.90;;;4.40;;
69005;SDS011;56061;51.748;19.620;2022-08-21T08:32:45;6.40;;;4.10;;
69005;SDS011;56061;51.748;19.620;2022-08-21T08:35:12;6.10;;;3.70;;
69005;SDS011;56061;51.748;19.620;2022-08-21T08:37:41;7.90;;;4.20;;
69005;SDS011;56061;51.748;19.620;2022-08-21T08:42:59;6.40;;;4.10;;
69005;SDS011;56061;51.748;19.620;2022-08-21T08:45:29;6.60;;;3.50;;
69005;SDS011;56061;51.748;19.620;2022-08-21T08:48:04;6.70;;;3.40;;
69005;SDS011;56061;51.748;19.620;2022-08-21T08:50:56;6.40;;;3.50;;
69005;SDS011;56061;51.748;19.620;2022-08-21T08:53:31;5.00;;;3.60;;
69005;SDS011;56061;51.748;19.620;2022-08-21T08:56:01;6.70;;;3.80;;
69005;SDS011;56061;51.748;19.620;2022-08-21T08:58:36;7.00;;;3.90;;
69005;SDS011;56061;51.748;19.620;2022-08-21T09:01:13;6.00;;;3.80;;
69005;SDS011;56061;51.748;19.620;2022-08-21T09:03:45;6.80;;;3.90;;
69005;SDS011;56061;51.748;19.620;2022-08-21T09:14:47;6.20;;;3.80;;
69005;SDS011;56061;51.748;19.620;2022-08-21T09:20:19;5.80;;;3.50;;
69005;SDS011;56061;51.748;19.620;2022-08-21T09:23:29;5.70;;;3.70;;
69005;SDS011;56061;51.748;19.620;2022-08-21T09:26:23;6.00;;;3.90;;
69005;SDS011;56061;51.748;19.620;2022-08-21T09:28:56;6.20;;;3.50;;
69005;SDS011;56061;51.748;19.620;2022-08-21T09:31:35;5.60;;;3.50;;
69005;SDS011;56061;51.748;19.620;2022-08-21T09:34:07;6.50;;;3.70;;
69005;SDS011;56061;51.748;19.620;2022-08-21T09:36:44;6.10;;;3.60;;
69005;SDS011;56061;51.748;19.620;2022-08-21T09:39:32;6.70;;;3.60;;
69005;SDS011;56061;51.748;19.620;2022-08-21T09:42:07;6.60;;;3.30;;
69005;SDS011;56061;51.748;19.620;2022-08-21T09:44:37;5.90;;;3.40;;
69005;SDS011;56061;51.748;19.620;2022-08-21T09:47:11;6.10;;;3.40;;
69005;SDS011;56061;51.748;19.620;2022-08-21T09:49:42;7.50;;;3.70;;
69005;SDS011;56061;51.748;19.620;2022-08-21T09:52:20;5.60;;;3.10;;
69005;SDS011;56061;51.748;19.620;2022-08-21T09:54:53;6.10;;;3.10;;
69005;SDS011;56061;51.748;19.620;2022-08-21T09:57:30;6.80;;;3.30;;
69005;SDS011;56061;51.748;19.620;2022-08-21T10:00:26;6.60;;;3.10;;
69005;SDS011;56061;51.748;19.620;2022-08-21T10:05:55;5.80;;;3.20;;
69005;SDS011;56061;51.748;19.620;2022-08-21T10:08:36;5.60;;;2.80;;
69005;SDS011;56061;51.748;19.620;2022-08-21T10:11:16;4.20;;;2.70;;
69005;SDS011;56061;51.748;19.620;2022-08-21T10:14:22;4.40;;;2.80;;
69005;SDS011;56061;51.748;19.620;2022-08-21T10:17:19;4.40;;;2.90;;
69005;SDS011;56061;51.748;19.620;2022-08-21T10:20:29;4.60;;;2.90;;
69005;SDS011;56061;51.748;19.620;2022-08-21T10:29:05;5.00;;;2.70;;
69005;SDS011;56061;51.748;19.620;2022-08-21T10:35:10;4.10;;;2.60;;
69005;SDS011;56061;51.748;19.620;2022-08-21T10:37:55;3.90;;;2.80;;
69005;SDS011;56061;51.748;19.620;2022-08-21T10:43:33;4.80;;;2.40;;
69005;SDS011;56061;51.748;19.620;2022-08-21T10:49:30;4.70;;;2.70;;
69005;SDS011;56061;51.748;19.620;2022-08-21T10:52:36;4.30;;;2.60;;
69005;SDS011;56061;51.748;19.620;2022-08-21T10:55:30;4.10;;;2.50;;
69005;SDS011;56061;51.748;19.620;2022-08-21T10:58:19;4.30;;;2.70;;
69005;SDS011;56061;51.748;19.620;2022-08-21T11:01:03;4.80;;;2.60;;
69005;SDS011;56061;51.748;19.620;2022-08-21T11:03:46;4.40;;;2.90;;
69005;SDS011;56061;51.748;19.620;2022-08-21T11:06:24;5.00;;;2.80;;
69005;SDS011;56061;51.748;19.620;2022-08-21T11:09:04;5.00;;;3.00;;
69005;SDS011;56061;51.748;19.620;2022-08-21T11:11:47;4.50;;;2.70;;
69005;SDS011;56061;51.748;19.620;2022-08-21T11:14:56;5.50;;;3.30;;
69005;SDS011;56061;51.748;19.620;2022-08-21T11:17:57;5.90;;;2.90;;
69005;SDS011;56061;51.748;19.620;2022-08-21T11:20:38;4.80;;;3.10;;
69005;SDS011;56061;51.748;19.620;2022-08-21T11:23:33;8.00;;;3.60;;
69005;SDS011;56061;51.748;19.620;2022-08-21T11:26:30;9.50;;;3.50;;
69005;SDS011;56061;51.748;19.620;2022-08-21T11:29:05;6.10;;;3.50;;
69005;SDS011;56061;51.748;19.620;2022-08-21T11:35:01;5.70;;;3.20;;
69005;SDS011;56061;51.748;19.620;2022-08-21T11:43:38;5.90;;;3.30;;
69005;SDS011;56061;51.748;19.620;2022-08-21T11:49:43;5.60;;;3.40;;
69005;SDS011;56061;51.748;19.620;2022-08-21T11:52:20;7.50;;;3.90;;
69005;SDS011;56061;51.748;19.620;2022-08-21T11:55:07;9.90;;;5.80;;
69005;SDS011;56061;51.748;19.620;2022-08-21T11:58:09;10.20;;;6.30;;
69005;SDS011;56061;51.748;19.620;2022-08-21T12:00:47;8.30;;;6.30;;
69005;SDS011;56061;51.748;19.620;2022-08-21T12:03:34;9.90;;;6.20;;
69005;SDS011;56061;51.748;19.620;2022-08-21T12:06:13;9.40;;;6.70;;
69005;SDS011;56061;51.748;19.620;2022-08-21T12:09:01;8.70;;;6.30;;
69005;SDS011;56061;51.748;19.620;2022-08-21T12:11:49;10.40;;;7.20;;
69005;SDS011;56061;51.748;19.620;2022-08-21T12:14:36;9.40;;;6.60;;
69005;SDS011;56061;51.748;19.620;2022-08-21T12:17:07;9.80;;;6.60;;
69005;SDS011;56061;51.748;19.620;2022-08-21T12:20:15;8.00;;;5.90;;
69005;SDS011;56061;51.748;19.620;2022-08-21T12:22:52;8.60;;;6.80;;
69005;SDS011;56061;51.748;19.620;2022-08-21T12:25:22;7.70;;;5.80;;
69005;SDS011;56061;51.748;19.620;2022-08-21T12:28:06;8.00;;;6.00;;
69005;SDS011;56061;51.748;19.620;2022-08-21T12:30:38;9.10;;;6.10;;
69005;SDS011;56061;51.748;19.620;2022-08-21T12:33:28;7.90;;;5.70;;
69005;SDS011;56061;51.748;19.620;2022-08-21T12:36:13;9.30;;;6.00;;
69005;SDS011;56061;51.748;19.620;2022-08-21T12:39:02;9.10;;;5.50;;
69005;SDS011;56061;51.748;19.620;2022-08-21T12:44:55;11.50;;;6.00;;
69005;SDS011;56061;51.748;19.620;2022-08-21T12:47:31;9.00;;;6.10;;
69005;SDS011;56061;51.748;19.620;2022-08-21T12:50:09;8.20;;;6.10;;
69005;SDS011;56061;51.748;19.620;2022-08-21T12:52:55;9.00;;;5.70;;
69005;SDS011;56061;51.748;19.620;2022-08-21T12:55:31;8.10;;;5.50;;
69005;SDS011;56061;51.748;19.620;2022-08-21T12:58:00;7.70;;;5.10;;
69005;SDS011;56061;51.748;19.620;2022-08-21T13:00:28;7.60;;;5.50;;
69005;SDS011;56061;51.748;19.620;2022-08-21T13:02:56;8.10;;;5.50;;
69005;SDS011;56061;51.748;19.620;2022-08-21T13:05:33;7.40;;;5.10;;
69005;SDS011;56061;51.748;19.620;2022-08-21T13:08:06;7.00;;;4.80;;
69005;SDS011;56061;51.748;19.620;2022-08-21T13:10:36;9.20;;;5.60;;
69005;SDS011;56061;51.748;19.620;2022-08-21T13:13:06;9.10;;;5.40;;
69005;SDS011;56061;51.748;19.620;2022-08-21T13:15:40;8.90;;;6.00;;
69005;SDS011;56061;51.748;19.620;2022-08-21T13:18:25;7.60;;;5.20;;
69005;SDS011;56061;51.748;19.620;2022-08-21T13:21:13;7.00;;;5.10;;
69005;SDS011;56061;51.748;19.620;2022-08-21T13:23:41;7.20;;;5.20;;
69005;SDS011;56061;51.748;19.620;2022-08-21T13:26:20;8.40;;;5.40;;
69005;SDS011;56061;51.748;19.620;2022-08-21T13:28:49;7.80;;;5.30;;
69005;SDS011;56061;51.748;19.620;2022-08-21T13:31:22;8.20;;;5.20;;
69005;SDS011;56061;51.748;19.620;2022-08-21T13:33:54;7.00;;;5.10;;
69005;SDS011;56061;51.748;19.620;2022-08-21T13:36:25;8.20;;;5.70;;
69005;SDS011;56061;51.748;19.620;2022-08-21T13:38:56;7.10;;;5.10;;
69005;SDS011;56061;51.748;19.620;2022-08-21T13:41:32;7.10;;;5.10;;
69005;SDS011;56061;51.748;19.620;2022-08-21T13:44:13;7.10;;;4.60;;
69005;SDS011;56061;51.748;19.620;2022-08-21T13:46:47;7.40;;;5.10;;
69005;SDS011;56061;51.748;19.620;2022-08-21T13:49:17;7.00;;;5.10;;
69005;SDS011;56061;51.748;19.620;2022-08-21T13:51:47;7.50;;;4.90;;
69005;SDS011;56061;51.748;19.620;2022-08-21T13:54:27;7.00;;;5.00;;
69005;SDS011;56061;51.748;19.620;2022-08-21T13:57:00;8.20;;;4.80;;
69005;SDS011;56061;51.748;19.620;2022-08-21T13:59:30;7.00;;;4.80;;
69005;SDS011;56061;51.748;19.620;2022-08-21T14:02:02;7.90;;;5.10;;
69005;SDS011;56061;51.748;19.620;2022-08-21T14:04:56;8.00;;;4.90;;
69005;SDS011;56061;51.748;19.620;2022-08-21T14:07:45;7.20;;;4.90;;
69005;SDS011;56061;51.748;19.620;2022-08-21T14:10:21;7.50;;;4.70;;
69005;SDS011;56061;51.748;19.620;2022-08-21T14:12:52;6.70;;;4.60;;
69005;SDS011;56061;51.748;19.620;2022-08-21T14:15:27;7.90;;;5.10;;
69005;SDS011;56061;51.748;19.620;2022-08-21T14:18:18;7.50;;;4.70;;
69005;SDS011;56061;51.748;19.620;2022-08-21T14:20:46;6.50;;;4.10;;
69005;SDS011;56061;51.748;19.620;2022-08-21T14:23:23;7.90;;;4.30;;
69005;SDS011;56061;51.748;19.620;2022-08-21T14:25:52;5.70;;;4.10;;
69005;SDS011;56061;51.748;19.620;2022-08-21T14:28:26;7.20;;;3.90;;
69005;SDS011;56061;51.748;19.620;2022-08-21T14:30:56;6.40;;;3.90;;
69005;SDS011;56061;51.748;19.620;2022-08-21T14:33:27;6.60;;;4.60;;
69005;SDS011;56061;51.748;19.620;2022-08-21T14:35:56;7.20;;;4.50;;
69005;SDS011;56061;51.748;19.620;2022-08-21T14:38:26;7.20;;;5.00;;
69005;SDS011;56061;51.748;19.620;2022-08-21T14:40:57;7.00;;;4.30;;
69005;SDS011;56061;51.748;19.620;2022-08-21T14:43:27;7.30;;;4.30;;
69005;SDS011;56061;51.748;19.620;2022-08-21T14:45:55;6.10;;;4.20;;
69005;SDS011;56061;51.748;19.620;2022-08-21T14:48:22;6.50;;;3.80;;
69005;SDS011;56061;51.748;19.620;2022-08-21T14:50:48;7.20;;;4.30;;
69005;SDS011;56061;51.748;19.620;2022-08-21T14:53:15;6.10;;;4.20;;
69005;SDS011;56061;51.748;19.620;2022-08-21T14:55:42;6.30;;;4.00;;
69005;SDS011;56061;51.748;19.620;2022-08-21T14:58:27;7.60;;;4.30;;
69005;SDS011;56061;51.748;19.620;2022-08-21T15:00:55;5.70;;;3.90;;
69005;SDS011;56061;51.748;19.620;2022-08-21T15:03:22;7.60;;;4.30;;
69005;SDS011;56061;51.748;19.620;2022-08-21T15:05:49;6.80;;;3.90;;
69005;SDS011;56061;51.748;19.620;2022-08-21T15:08:17;6.50;;;3.90;;
69005;SDS011;56061;51.748;19.620;2022-08-21T15:10:44;6.20;;;3.90;;
69005;SDS011;56061;51.748;19.620;2022-08-21T15:13:32;7.10;;;3.80;;
69005;SDS011;56061;51.748;19.620;2022-08-21T15:15:59;6.20;;;3.80;;
69005;SDS011;56061;51.748;19.620;2022-08-21T15:18:28;7.10;;;3.90;;
69005;SDS011;56061;51.748;19.620;2022-08-21T15:20:56;5.80;;;3.60;;
69005;SDS011;56061;51.748;19.620;2022-08-21T15:23:23;7.20;;;3.50;;
69005;SDS011;56061;51.748;19.620;2022-08-21T15:25:51;15.60;;;4.40;;
69005;SDS011;56061;51.748;19.620;2022-08-21T15:28:19;8.50;;;3.90;;
69005;SDS011;56061;51.748;19.620;2022-08-21T15:30:48;7.40;;;4.00;;
69005;SDS011;56061;51.748;19.620;2022-08-21T15:33:14;8.90;;;3.50;;
69005;SDS011;56061;51.748;19.620;2022-08-21T15:35:41;7.70;;;3.60;;
69005;SDS011;56061;51.748;19.620;2022-08-21T15:38:08;6.00;;;3.90;;
69005;SDS011;56061;51.748;19.620;2022-08-21T15:40:37;5.70;;;3.30;;
69005;SDS011;56061;51.748;19.620;2022-08-21T15:43:29;7.00;;;3.50;;
69005;SDS011;56061;51.748;19.620;2022-08-21T15:45:58;9.10;;;4.00;;
69005;SDS011;56061;51.748;19.620;2022-08-21T15:48:26;5.20;;;3.60;;
69005;SDS011;56061;51.748;19.620;2022-08-21T15:50:53;6.00;;;3.30;;
69005;SDS011;56061;51.748;19.620;2022-08-21T15:53:19;7.60;;;3.80;;
69005;SDS011;56061;51.748;19.620;2022-08-21T15:55:46;6.10;;;4.00;;